Salvamar Nunki — EA3364 — position and weather

sailwx.info

Track history (hours):
 
Tides and Currents Weather Stations Pressure Air Temp Water Temp Dewpoint Dewpoint Depression Visibility Wind Speed Wind Dir Waves Ship Positions

Salvamar Nunki

Last reported at 2018-Jun-23 14:13 UTC. Time now 2018-Jun-24 16:48 UTC.
Position N 28°08' W 015°25'.

Length 21 m; draft 1 m.

Type: SAR. MMSI: 224049950.

Date/timePositionNaut miles runAvg speedWind from/ knotsBaromVisibWave heightAir tempDewpointWater temp
2018-Jun-23 14:13N 28°08' W 015°25'0 0.3
2018-Jun-23 14:00N 28°08' W 015°26'0 0.2
2018-Jun-23 13:30N 28°08' W 015°25'1 2.8
2018-Jun-23 13:01N 28°07' W 015°24'4 8.5
2018-Jun-23 12:30N 28°06' W 015°20'4 8.6
2018-Jun-23 12:00N 28°05' W 015°15'4 8.7
2018-Jun-23 11:30N 28°04' W 015°10'4 8.8
2018-Jun-23 11:00N 28°03' W 015°05'4 8.9
2018-Jun-23 10:30N 28°02' W 015°00'4 8.4
2018-Jun-23 10:00N 28°02' W 014°56'1 1.9
2018-Jun-23 09:30N 28°03' W 014°55'510.8
2018-Jun-23 09:00N 28°04' W 015°01'1021.0
2018-Jun-23 08:30N 28°05' W 015°12'1120.8
2018-Jun-23 08:00N 28°07' W 015°24'1 0.1
2018-Jun-22 14:52N 28°08' W 015°25'0 0.0
2018-Jun-22 14:30N 28°08' W 015°25'0 0.0
2018-Jun-22 14:00N 28°08' W 015°25'0 0.0
2018-Jun-22 13:30N 28°08' W 015°25'0 0.0
2018-Jun-22 12:58N 28°08' W 015°25'0 0.0
2018-Jun-22 12:30N 28°08' W 015°25'0 0.0
2018-Jun-22 11:59N 28°08' W 015°25'0 0.0
2018-Jun-22 11:30N 28°08' W 015°25'0 0.0
2018-Jun-22 11:00N 28°08' W 015°25'0 0.0
2018-Jun-22 10:30N 28°08' W 015°25'0 0.0
2018-Jun-22 10:00N 28°08' W 015°25'0 0.0
2018-Jun-22 09:30N 28°08' W 015°25'0 0.0
2018-Jun-22 09:00N 28°08' W 015°25'0 0.0
2018-Jun-22 08:30N 28°08' W 015°25'0 0.0
2018-Jun-22 08:00N 28°08' W 015°25'0 0.0
2018-Jun-22 07:30N 28°08' W 015°25'0 0.0
2018-Jun-22 07:01N 28°08' W 015°25'0 0.0
2018-Jun-21 13:40N 28°08' W 015°25'0 0.0
2018-Jun-21 13:30N 28°08' W 015°25'0 0.0
2018-Jun-21 13:01N 28°08' W 015°25'0 0.0
2018-Jun-21 12:30N 28°08' W 015°25'0 0.0
2018-Jun-21 11:58N 28°08' W 015°25'0 0.0
2018-Jun-21 11:31N 28°08' W 015°25'0 0.0
2018-Jun-21 11:01N 28°08' W 015°25'0 0.0
2018-Jun-21 10:30N 28°08' W 015°25'0 0.0
2018-Jun-21 10:00N 28°08' W 015°25'0 0.0
2018-Jun-21 09:31N 28°08' W 015°25'0 0.0
2018-Jun-21 09:01N 28°08' W 015°25'0 0.0
2018-Jun-21 08:31N 28°08' W 015°25'0 0.0
2018-Jun-21 08:00N 28°08' W 015°25'0 0.0
2018-Jun-21 07:30N 28°08' W 015°25'0 0.0
2018-Jun-20 20:13N 28°08' W 015°25'0 1.7
2018-Jun-20 20:00N 28°08' W 015°26'0 0.6
2018-Jun-20 19:30N 28°08' W 015°25'2 3.8
2018-Jun-20 19:00N 28°06' W 015°24'2 3.1
2018-Jun-20 18:30N 28°07' W 015°25'0 0.0
2018-Jun-20 12:51N 28°08' W 015°25'0 0.0
2018-Jun-20 12:30N 28°08' W 015°25'0 0.0
2018-Jun-20 11:59N 28°08' W 015°25'0 0.0
2018-Jun-20 11:30N 28°08' W 015°25'0 0.0
2018-Jun-20 11:00N 28°08' W 015°25'0 0.0
2018-Jun-20 10:30N 28°08' W 015°25'0 0.0
2018-Jun-20 10:00N 28°08' W 015°25'0 0.0
2018-Jun-20 09:30N 28°08' W 015°25'0 0.0
2018-Jun-20 09:00N 28°08' W 015°25'0 0.0
2018-Jun-20 08:27N 28°08' W 015°25'0 0.0
2018-Jun-20 08:00N 28°08' W 015°25'0 0.0
2018-Jun-20 07:30N 28°08' W 015°25'0 0.0
2018-Jun-19 11:34N 28°08' W 015°25'0 0.0
2018-Jun-19 11:30N 28°08' W 015°25'0 0.0
2018-Jun-19 11:00N 28°08' W 015°25'0 0.0
2018-Jun-19 10:30N 28°08' W 015°25'0 0.0
2018-Jun-19 10:00N 28°08' W 015°25'0 0.0
2018-Jun-19 09:28N 28°08' W 015°25'0 0.0
2018-Jun-19 09:00N 28°08' W 015°25'0 0.0
2018-Jun-19 08:30N 28°08' W 015°25'0 0.0
2018-Jun-19 08:00N 28°08' W 015°25'0 0.0
2018-Jun-19 07:30N 28°08' W 015°25'0 0.0
2018-Jun-18 13:32N 28°08' W 015°25'0 0.0
2018-Jun-18 13:29N 28°08' W 015°25'0 0.0
2018-Jun-18 12:57N 28°08' W 015°25'0 0.0
2018-Jun-18 12:31N 28°08' W 015°25'0 0.0
2018-Jun-18 12:01N 28°08' W 015°25'0 0.0
2018-Jun-18 11:31N 28°08' W 015°25'0 0.0
2018-Jun-18 11:00N 28°08' W 015°25'0 0.0
2018-Jun-18 10:31N 28°08' W 015°25'0 0.0
2018-Jun-18 10:00N 28°08' W 015°25'0 0.0
2018-Jun-18 09:30N 28°08' W 015°25'0 0.0
2018-Jun-18 09:00N 28°08' W 015°25'0 0.0
2018-Jun-18 08:30N 28°08' W 015°25'0 0.0
2018-Jun-18 08:00N 28°08' W 015°25'0 0.0
2018-Jun-18 07:30N 28°08' W 015°25'0 0.0
2018-Jun-16 14:55N 28°08' W 015°25'2 5.6
2018-Jun-16 14:30N 28°06' W 015°24'3 5.1
2018-Jun-16 14:01N 28°04' W 015°22'5 0.2
2018-Jun-15 13:26N 28°08' W 015°25'0 0.0
2018-Jun-15 13:01N 28°08' W 015°25'0 0.0
2018-Jun-15 12:31N 28°08' W 015°25'0 0.0
2018-Jun-15 12:00N 28°08' W 015°25'0 0.0
2018-Jun-15 11:30N 28°08' W 015°25'0 0.0
2018-Jun-15 11:00N 28°08' W 015°25'0 0.0
2018-Jun-15 10:30N 28°08' W 015°25'0 0.0
2018-Jun-15 10:00N 28°08' W 015°25'0 0.0
2018-Jun-15 09:30N 28°08' W 015°25'0 0.0
2018-Jun-15 09:00N 28°08' W 015°25'0 0.0
2018-Jun-15 08:28N 28°08' W 015°25'0 0.0
2018-Jun-15 08:00N 28°08' W 015°25'0 0.0
2018-Jun-15 07:30N 28°08' W 015°25'0 0.0
2018-Jun-14 16:30N 28°08' W 015°25'0 0.0
2018-Jun-14 15:59N 28°08' W 015°25'0 0.0
2018-Jun-14 15:30N 28°08' W 015°25'0 0.0
2018-Jun-14 15:00N 28°08' W 015°25'0 0.0
2018-Jun-14 14:27N 28°08' W 015°25'0 0.0
2018-Jun-14 14:00N 28°08' W 015°25'0 0.0
2018-Jun-14 13:30N 28°08' W 015°25'0 0.0
2018-Jun-14 13:00N 28°08' W 015°25'0 0.0
2018-Jun-14 12:30N 28°08' W 015°25'0 0.0
2018-Jun-14 12:00N 28°08' W 015°25'0 0.0
2018-Jun-14 11:30N 28°08' W 015°25'0 0.0
2018-Jun-14 11:00N 28°08' W 015°25'0 0.0
2018-Jun-14 10:30N 28°08' W 015°25'0 0.0
2018-Jun-14 10:00N 28°08' W 015°25'0 0.0
2018-Jun-14 09:30N 28°08' W 015°25'0 0.0
2018-Jun-14 09:00N 28°08' W 015°25'0 0.0
2018-Jun-14 08:30N 28°08' W 015°25'0 0.0
2018-Jun-14 08:00N 28°08' W 015°25'0 0.0
2018-Jun-13 16:50N 28°08' W 015°25'0 0.0
2018-Jun-13 16:30N 28°08' W 015°25'0 0.0
2018-Jun-13 16:00N 28°08' W 015°25'0 0.0
2018-Jun-13 15:30N 28°08' W 015°25'0 0.0
2018-Jun-13 15:00N 28°08' W 015°25'0 0.0
2018-Jun-13 14:30N 28°08' W 015°25'  
Track history (hours):
 
Tides and Currents Weather Stations Pressure Air Temp Water Temp Dewpoint Dewpoint Depression Visibility Wind Speed Wind Dir Waves Ship Positions

Salvamar Nunki

Last reported at 2018-Jun-23 14:13 UTC. Time now 2018-Jun-24 16:48 UTC.
Position N 28°08' W 015°25'.

Length 21 m; draft 1 m.

Type: SAR. MMSI: 224049950.

Date/timePositionNaut miles runAvg speedWind from/ knotsBaromVisibWave heightAir tempDewpointWater temp
2018-Jun-23 14:13N 28°08' W 015°25'0 0.3
2018-Jun-23 14:00N 28°08' W 015°26'0 0.2
2018-Jun-23 13:30N 28°08' W 015°25'1 2.8
2018-Jun-23 13:01N 28°07' W 015°24'4 8.5
2018-Jun-23 12:30N 28°06' W 015°20'4 8.6
2018-Jun-23 12:00N 28°05' W 015°15'4 8.7
2018-Jun-23 11:30N 28°04' W 015°10'4 8.8
2018-Jun-23 11:00N 28°03' W 015°05'4 8.9
2018-Jun-23 10:30N 28°02' W 015°00'4 8.4
2018-Jun-23 10:00N 28°02' W 014°56'1 1.9
2018-Jun-23 09:30N 28°03' W 014°55'510.8
2018-Jun-23 09:00N 28°04' W 015°01'1021.0
2018-Jun-23 08:30N 28°05' W 015°12'1120.8
2018-Jun-23 08:00N 28°07' W 015°24'1 0.1
2018-Jun-22 14:52N 28°08' W 015°25'0 0.0
2018-Jun-22 14:30N 28°08' W 015°25'0 0.0
2018-Jun-22 14:00N 28°08' W 015°25'0 0.0
2018-Jun-22 13:30N 28°08' W 015°25'0 0.0
2018-Jun-22 12:58N 28°08' W 015°25'0 0.0
2018-Jun-22 12:30N 28°08' W 015°25'0 0.0
2018-Jun-22 11:59N 28°08' W 015°25'0 0.0
2018-Jun-22 11:30N 28°08' W 015°25'0 0.0
2018-Jun-22 11:00N 28°08' W 015°25'0 0.0
2018-Jun-22 10:30N 28°08' W 015°25'0 0.0
2018-Jun-22 10:00N 28°08' W 015°25'0 0.0
2018-Jun-22 09:30N 28°08' W 015°25'0 0.0
2018-Jun-22 09:00N 28°08' W 015°25'0 0.0
2018-Jun-22 08:30N 28°08' W 015°25'0 0.0
2018-Jun-22 08:00N 28°08' W 015°25'0 0.0
2018-Jun-22 07:30N 28°08' W 015°25'0 0.0
2018-Jun-22 07:01N 28°08' W 015°25'0 0.0
2018-Jun-21 13:40N 28°08' W 015°25'0 0.0
2018-Jun-21 13:30N 28°08' W 015°25'0 0.0
2018-Jun-21 13:01N 28°08' W 015°25'0 0.0
2018-Jun-21 12:30N 28°08' W 015°25'0 0.0
2018-Jun-21 11:58N 28°08' W 015°25'0 0.0
2018-Jun-21 11:31N 28°08' W 015°25'0 0.0
2018-Jun-21 11:01N 28°08' W 015°25'0 0.0
2018-Jun-21 10:30N 28°08' W 015°25'0 0.0
2018-Jun-21 10:00N 28°08' W 015°25'0 0.0
2018-Jun-21 09:31N 28°08' W 015°25'0 0.0
2018-Jun-21 09:01N 28°08' W 015°25'0 0.0
2018-Jun-21 08:31N 28°08' W 015°25'0 0.0
2018-Jun-21 08:00N 28°08' W 015°25'0 0.0
2018-Jun-21 07:30N 28°08' W 015°25'0 0.0
2018-Jun-20 20:13N 28°08' W 015°25'0 1.7
2018-Jun-20 20:00N 28°08' W 015°26'0 0.6
2018-Jun-20 19:30N 28°08' W 015°25'2 3.8
2018-Jun-20 19:00N 28°06' W 015°24'2 3.1
2018-Jun-20 18:30N 28°07' W 015°25'0 0.0
2018-Jun-20 12:51N 28°08' W 015°25'0 0.0
2018-Jun-20 12:30N 28°08' W 015°25'0 0.0
2018-Jun-20 11:59N 28°08' W 015°25'0 0.0
2018-Jun-20 11:30N 28°08' W 015°25'0 0.0
2018-Jun-20 11:00N 28°08' W 015°25'0 0.0
2018-Jun-20 10:30N 28°08' W 015°25'0 0.0
2018-Jun-20 10:00N 28°08' W 015°25'0 0.0
2018-Jun-20 09:30N 28°08' W 015°25'0 0.0
2018-Jun-20 09:00N 28°08' W 015°25'0 0.0
2018-Jun-20 08:27N 28°08' W 015°25'0 0.0
2018-Jun-20 08:00N 28°08' W 015°25'0 0.0
2018-Jun-20 07:30N 28°08' W 015°25'0 0.0
2018-Jun-19 11:34N 28°08' W 015°25'0 0.0
2018-Jun-19 11:30N 28°08' W 015°25'0 0.0
2018-Jun-19 11:00N 28°08' W 015°25'0 0.0
2018-Jun-19 10:30N 28°08' W 015°25'0 0.0
2018-Jun-19 10:00N 28°08' W 015°25'0 0.0
2018-Jun-19 09:28N 28°08' W 015°25'0 0.0
2018-Jun-19 09:00N 28°08' W 015°25'0 0.0
2018-Jun-19 08:30N 28°08' W 015°25'0 0.0
2018-Jun-19 08:00N 28°08' W 015°25'0 0.0
2018-Jun-19 07:30N 28°08' W 015°25'0 0.0
2018-Jun-18 13:32N 28°08' W 015°25'0 0.0
2018-Jun-18 13:29N 28°08' W 015°25'0 0.0
2018-Jun-18 12:57N 28°08' W 015°25'0 0.0
2018-Jun-18 12:31N 28°08' W 015°25'0 0.0
2018-Jun-18 12:01N 28°08' W 015°25'0 0.0
2018-Jun-18 11:31N 28°08' W 015°25'0 0.0
2018-Jun-18 11:00N 28°08' W 015°25'0 0.0
2018-Jun-18 10:31N 28°08' W 015°25'0 0.0
2018-Jun-18 10:00N 28°08' W 015°25'0 0.0
2018-Jun-18 09:30N 28°08' W 015°25'0 0.0
2018-Jun-18 09:00N 28°08' W 015°25'0 0.0
2018-Jun-18 08:30N 28°08' W 015°25'0 0.0
2018-Jun-18 08:00N 28°08' W 015°25'0 0.0
2018-Jun-18 07:30N 28°08' W 015°25'0 0.0
2018-Jun-16 14:55N 28°08' W 015°25'2 5.6
2018-Jun-16 14:30N 28°06' W 015°24'3 5.1
2018-Jun-16 14:01N 28°04' W 015°22'5 0.2
2018-Jun-15 13:26N 28°08' W 015°25'0 0.0
2018-Jun-15 13:01N 28°08' W 015°25'0 0.0
2018-Jun-15 12:31N 28°08' W 015°25'0 0.0
2018-Jun-15 12:00N 28°08' W 015°25'0 0.0
2018-Jun-15 11:30N 28°08' W 015°25'0 0.0
2018-Jun-15 11:00N 28°08' W 015°25'0 0.0
2018-Jun-15 10:30N 28°08' W 015°25'0 0.0
2018-Jun-15 10:00N 28°08' W 015°25'0 0.0
2018-Jun-15 09:30N 28°08' W 015°25'0 0.0
2018-Jun-15 09:00N 28°08' W 015°25'0 0.0
2018-Jun-15 08:28N 28°08' W 015°25'0 0.0
2018-Jun-15 08:00N 28°08' W 015°25'0 0.0
2018-Jun-15 07:30N 28°08' W 015°25'0 0.0
2018-Jun-14 16:30N 28°08' W 015°25'0 0.0
2018-Jun-14 15:59N 28°08' W 015°25'0 0.0
2018-Jun-14 15:30N 28°08' W 015°25'0 0.0
2018-Jun-14 15:00N 28°08' W 015°25'0 0.0
2018-Jun-14 14:27N 28°08' W 015°25'0 0.0
2018-Jun-14 14:00N 28°08' W 015°25'0 0.0
2018-Jun-14 13:30N 28°08' W 015°25'0 0.0
2018-Jun-14 13:00N 28°08' W 015°25'0 0.0
2018-Jun-14 12:30N 28°08' W 015°25'0 0.0
2018-Jun-14 12:00N 28°08' W 015°25'0 0.0
2018-Jun-14 11:30N 28°08' W 015°25'0 0.0
2018-Jun-14 11:00N 28°08' W 015°25'0 0.0
2018-Jun-14 10:30N 28°08' W 015°25'0 0.0
2018-Jun-14 10:00N 28°08' W 015°25'0 0.0
2018-Jun-14 09:30N 28°08' W 015°25'0 0.0
2018-Jun-14 09:00N 28°08' W 015°25'0 0.0
2018-Jun-14 08:30N 28°08' W 015°25'0 0.0
2018-Jun-14 08:00N 28°08' W 015°25'0 0.0
2018-Jun-13 16:50N 28°08' W 015°25'0 0.0
2018-Jun-13 16:30N 28°08' W 015°25'0 0.0
2018-Jun-13 16:00N 28°08' W 015°25'0 0.0
2018-Jun-13 15:30N 28°08' W 015°25'0 0.0
2018-Jun-13 15:00N 28°08' W 015°25'0 0.0
2018-Jun-13 14:30N 28°08' W 015°25'  

Dump ship's entire track history